Time;durP1;ratioP1;P1;durP2;ratioP2;P2;SDS_P1;SDS_P2;PMS_P1;PMS_P2;Temp;Humidity;BMP_temperature;BMP_pressure;BME280_temperature;BME280_humidity;BME280_pressure;Samples;Min_cycle;Max_cycle;Signal;HPM_P1;HPM_P2
2022/03/19 00:01:34;;;;;;;22.30;6.07;;;;;;;;;;5072918;28;20235;-69
2022/03/19 00:04:04;;;;;;;27.88;7.35;;;;;;;;;;5073261;28;20232;-68
2022/03/19 00:06:32;;;;;;;21.95;5.78;;;;;;;;;;5072894;28;20244;-69
2022/03/19 00:09:00;;;;;;;23.88;6.15;;;;;;;;;;5072943;28;20210;-69
2022/03/19 00:11:27;;;;;;;29.30;6.78;;;;;;;;;;5072812;28;20235;-70
2022/03/19 00:13:54;;;;;;;23.80;7.20;;;;;;;;;;5072827;28;20204;-69
2022/03/19 00:16:22;;;;;;;21.20;6.15;;;;;;;;;;5073085;28;20215;-69
2022/03/19 00:18:50;;;;;;;26.25;6.18;;;;;;;;;;5072862;28;20212;-69
2022/03/19 00:21:20;;;;;;;23.08;5.47;;;;;;;;;;5072650;28;20212;-69
2022/03/19 00:23:47;;;;;;;18.48;5.20;;;;;;;;;;5072518;28;20748;-69
2022/03/19 00:26:16;;;;;;;21.15;5.95;;;;;;;;;;5072793;28;20205;-69
2022/03/19 00:28:44;;;;;;;20.98;6.38;;;;;;;;;;5072419;28;20209;-69
2022/03/19 00:31:11;;;;;;;22.17;5.32;;;;;;;;;;5072199;28;20216;-69
2022/03/19 00:33:38;;;;;;;21.48;5.95;;;;;;;;;;5072405;28;20204;-69
2022/03/19 00:36:06;;;;;;;20.25;5.63;;;;;;;;;;5071782;28;20666;-69
2022/03/19 00:38:35;;;;;;;18.45;4.72;;;;;;;;;;5072387;28;20211;-69
2022/03/19 00:41:03;;;;;;;21.45;6.53;;;;;;;;;;5071875;28;20227;-69
2022/03/19 00:43:30;;;;;;;21.60;4.95;;;;;;;;;;5072092;28;20204;-69
2022/03/19 00:45:58;;;;;;;20.25;4.80;;;;;;;;;;5072094;28;20201;-69
2022/03/19 00:48:25;;;;;;;24.80;5.97;;;;;;;;;;5072331;28;20205;-69
2022/03/19 00:50:53;;;;;;;21.60;6.28;;;;;;;;;;5072183;28;20208;-69
2022/03/19 00:53:20;;;;;;;23.52;5.57;;;;;;;;;;5071805;28;20610;-69
2022/03/19 00:55:50;;;;;;;23.35;5.10;;;;;;;;;;5072024;28;20304;-70
2022/03/19 00:58:18;;;;;;;24.15;6.70;;;;;;;;;;5072135;28;20217;-70
2022/03/19 01:00:45;;;;;;;21.55;5.53;;;;;;;;;;5072209;28;20299;-69
2022/03/19 01:03:13;;;;;;;24.67;6.97;;;;;;;;;;5071662;28;20670;-69
2022/03/19 01:05:42;;;;;;;19.50;5.07;;;;;;;;;;5071635;28;20355;-68
2022/03/19 01:08:11;;;;;;;22.67;5.90;;;;;;;;;;5071621;28;20594;-69
2022/03/19 01:10:39;;;;;;;23.33;6.47;;;;;;;;;;5071504;28;20228;-69
2022/03/19 01:13:09;;;;;;;23.63;5.80;;;;;;;;;;5071674;28;20765;-69
2022/03/19 01:15:36;;;;;;;22.58;5.18;;;;;;;;;;5071563;28;20688;-68
2022/03/19 01:18:05;;;;;;;22.92;5.88;;;;;;;;;;5071491;28;20200;-69
2022/03/19 01:20:33;;;;;;;26.05;5.38;;;;;;;;;;5071414;28;20243;-70
2022/03/19 01:23:01;;;;;;;22.98;5.97;;;;;;;;;;5071180;28;20212;-69
2022/03/19 01:25:29;;;;;;;29.67;6.88;;;;;;;;;;5071560;28;20255;-69
2022/03/19 01:27:56;;;;;;;23.88;6.10;;;;;;;;;;5071527;28;20677;-69
2022/03/19 01:30:26;;;;;;;24.40;6.55;;;;;;;;;;5071319;28;20669;-69
2022/03/19 01:32:54;;;;;;;25.33;6.22;;;;;;;;;;5071174;28;20211;-69
2022/03/19 01:35:21;;;;;;;19.48;6.05;;;;;;;;;;5070868;28;20212;-69
2022/03/19 01:37:49;;;;;;;20.85;6.97;;;;;;;;;;5071322;28;20204;-69
2022/03/19 01:40:17;;;;;;;19.67;5.15;;;;;;;;;;5071057;28;20220;-69
2022/03/19 01:42:46;;;;;;;23.55;5.13;;;;;;;;;;5071240;28;20579;-69
2022/03/19 01:45:16;;;;;;;21.38;7.28;;;;;;;;;;5064244;28;20242;-72
2022/03/19 01:47:47;;;;;;;21.42;6.93;;;;;;;;;;5070200;28;20211;-69
2022/03/19 01:50:15;;;;;;;22.98;6.35;;;;;;;;;;5071190;28;20570;-69
2022/03/19 01:52:43;;;;;;;21.98;5.97;;;;;;;;;;5071129;28;20296;-70
2022/03/19 01:55:10;;;;;;;21.90;6.97;;;;;;;;;;5070638;28;20676;-69
2022/03/19 01:57:39;;;;;;;24.02;6.95;;;;;;;;;;5071064;28;20227;-70
2022/03/19 02:00:07;;;;;;;24.60;6.28;;;;;;;;;;5070825;28;20208;-69
2022/03/19 02:02:34;;;;;;;24.02;6.43;;;;;;;;;;5070747;28;20207;-69
2022/03/19 02:05:04;;;;;;;17.52;4.57;;;;;;;;;;5070272;28;20252;-69
2022/03/19 02:07:32;;;;;;;20.58;5.75;;;;;;;;;;5070884;28;20584;-69
2022/03/19 02:10:00;;;;;;;18.05;5.53;;;;;;;;;;5064015;28;20772;-69
2022/03/19 02:12:27;;;;;;;23.63;5.72;;;;;;;;;;5070814;28;20295;-69
2022/03/19 02:14:55;;;;;;;19.35;5.97;;;;;;;;;;5070839;28;20592;-69
2022/03/19 02:17:26;;;;;;;19.10;5.30;;;;;;;;;;5070349;28;20685;-70
2022/03/19 02:19:54;;;;;;;17.80;4.78;;;;;;;;;;5070758;28;20287;-69
2022/03/19 02:22:25;;;;;;;24.30;6.13;;;;;;;;;;5070768;28;20208;-69
2022/03/19 02:27:40;;;;;;;24.00;6.70;;;;;;;;;;5070624;28;20677;-69
2022/03/19 02:30:10;;;;;;;21.42;6.45;;;;;;;;;;5070620;28;20223;-69
2022/03/19 02:32:37;;;;;;;24.85;5.97;;;;;;;;;;5070747;28;20700;-69
2022/03/19 02:35:05;;;;;;;16.65;4.72;;;;;;;;;;5070236;28;20214;-69
2022/03/19 02:37:41;;;;;;;21.52;5.70;;;;;;;;;;5070358;28;20701;-70
2022/03/19 02:40:11;;;;;;;22.30;5.43;;;;;;;;;;5070456;28;20228;-69
2022/03/19 02:42:39;;;;;;;17.13;4.35;;;;;;;;;;5070681;28;20204;-69
2022/03/19 02:45:07;;;;;;;20.30;5.55;;;;;;;;;;5070206;28;20232;-69
2022/03/19 02:47:56;;;;;;;32.13;7.50;;;;;;;;;;5063827;28;20208;-69
2022/03/19 02:50:22;;;;;;;22.13;6.60;;;;;;;;;;5065454;28;20208;-69
2022/03/19 02:52:50;;;;;;;23.25;6.07;;;;;;;;;;5070525;28;20204;-69
2022/03/19 02:55:19;;;;;;;18.67;5.20;;;;;;;;;;5070237;28;20216;-69
2022/03/19 02:57:47;;;;;;;24.00;5.72;;;;;;;;;;5063256;28;20234;-69
2022/03/19 03:00:14;;;;;;;26.50;6.72;;;;;;;;;;5074228;28;20212;-69
2022/03/19 03:02:42;;;;;;;20.45;5.13;;;;;;;;;;5074316;28;20212;-69
2022/03/19 03:05:11;;;;;;;20.90;6.28;;;;;;;;;;5073467;28;20244;-69
2022/03/19 03:07:39;;;;;;;21.42;5.13;;;;;;;;;;5074175;28;20212;-69
2022/03/19 03:10:08;;;;;;;22.10;5.28;;;;;;;;;;5074035;28;20243;-69
2022/03/19 03:12:37;;;;;;;22.55;5.18;;;;;;;;;;5074002;28;20211;-69
2022/03/19 03:15:05;;;;;;;23.13;6.55;;;;;;;;;;5073701;28;20217;-69
2022/03/19 03:17:33;;;;;;;24.42;5.05;;;;;;;;;;5073882;28;20232;-68
2022/03/19 03:20:00;;;;;;;21.42;5.57;;;;;;;;;;5067004;28;20603;-69
2022/03/19 03:22:28;;;;;;;20.48;5.93;;;;;;;;;;5073965;28;20633;-71
2022/03/19 03:24:55;;;;;;;19.23;5.85;;;;;;;;;;5073847;28;20239;-69
2022/03/19 03:27:24;;;;;;;17.17;4.88;;;;;;;;;;5073800;28;20692;-70
2022/03/19 03:29:53;;;;;;;25.75;5.95;;;;;;;;;;5073656;28;20292;-69
2022/03/19 03:32:21;;;;;;;23.23;6.43;;;;;;;;;;5073578;28;20251;-69
2022/03/19 03:34:48;;;;;;;19.45;5.65;;;;;;;;;;5073549;28;20692;-69
2022/03/19 03:37:18;;;;;;;20.73;5.13;;;;;;;;;;5073194;28;20201;-69
2022/03/19 03:39:46;;;;;;;23.80;6.22;;;;;;;;;;5073924;28;20219;-69
2022/03/19 03:42:13;;;;;;;21.10;5.50;;;;;;;;;;5066767;28;20621;-69
2022/03/19 03:44:42;;;;;;;21.63;5.28;;;;;;;;;;5073501;28;20205;-69
2022/03/19 03:47:11;;;;;;;20.88;6.13;;;;;;;;;;5073186;28;20597;-69
2022/03/19 03:49:39;;;;;;;21.58;5.30;;;;;;;;;;5073282;28;20212;-69
2022/03/19 03:52:07;;;;;;;25.90;5.90;;;;;;;;;;5073476;28;20292;-68
2022/03/19 03:54:35;;;;;;;25.85;5.72;;;;;;;;;;5073232;28;20254;-69
2022/03/19 03:57:02;;;;;;;20.90;5.40;;;;;;;;;;5072982;28;20204;-69
2022/03/19 03:59:31;;;;;;;23.95;5.68;;;;;;;;;;5073101;28;20685;-69
2022/03/19 04:02:00;;;;;;;18.95;4.85;;;;;;;;;;5073421;28;20258;-70
2022/03/19 04:04:28;;;;;;;21.08;5.07;;;;;;;;;;5066634;28;20207;-73
2022/03/19 04:06:56;;;;;;;24.80;6.78;;;;;;;;;;5072913;28;20251;-69
2022/03/19 04:09:24;;;;;;;27.85;6.65;;;;;;;;;;5072418;28;20204;-69
2022/03/19 04:11:52;;;;;;;22.45;6.40;;;;;;;;;;5072692;28;20660;-69
2022/03/19 04:14:20;;;;;;;22.20;5.20;;;;;;;;;;5073130;28;20214;-69
2022/03/19 04:16:47;;;;;;;22.92;5.60;;;;;;;;;;5073117;28;20214;-70
2022/03/19 04:19:15;;;;;;;18.98;5.32;;;;;;;;;;5072546;28;20205;-69
2022/03/19 04:21:44;;;;;;;21.38;5.65;;;;;;;;;;5076359;28;20220;-70
2022/03/19 04:24:12;;;;;;;17.65;4.78;;;;;;;;;;5077284;28;20649;-70
2022/03/19 04:26:39;;;;;;;21.80;4.53;;;;;;;;;;5076458;28;20239;-72
2022/03/19 04:29:06;;;;;;;31.15;5.90;;;;;;;;;;5076953;28;20268;-71
2022/03/19 04:31:34;;;;;;;17.50;4.47;;;;;;;;;;5076771;28;20204;-69
2022/03/19 04:34:01;;;;;;;21.83;5.22;;;;;;;;;;5076148;28;20204;-69
2022/03/19 04:36:36;;;;;;;20.88;6.40;;;;;;;;;;5076543;28;20295;-69
2022/03/19 04:39:06;;;;;;;24.00;5.60;;;;;;;;;;5076174;28;20298;-73
2022/03/19 04:41:34;;;;;;;20.98;4.97;;;;;;;;;;5076262;28;20219;-69
2022/03/19 04:44:02;;;;;;;22.67;6.38;;;;;;;;;;5077053;28;20213;-73
2022/03/19 04:46:29;;;;;;;26.65;6.68;;;;;;;;;;5076272;28;20228;-69
2022/03/19 04:48:57;;;;;;;22.13;5.00;;;;;;;;;;5074529;28;20212;-69
2022/03/19 04:51:33;;;;;;;25.60;7.40;;;;;;;;;;5065218;28;20811;-69
2022/03/19 04:54:02;;;;;;;27.42;9.10;;;;;;;;;;5065826;28;20210;-69
2022/03/19 04:56:31;;;;;;;288.95;70.55;;;;;;;;;;5072257;28;20212;-69
2022/03/19 04:58:59;;;;;;;523.50;158.45;;;;;;;;;;5071713;28;20208;-72
2022/03/19 05:01:27;;;;;;;155.75;47.67;;;;;;;;;;5071807;28;20201;-70
2022/03/19 05:03:55;;;;;;;86.28;24.60;;;;;;;;;;5071806;28;20211;-69
2022/03/19 05:06:22;;;;;;;40.78;18.95;;;;;;;;;;5071439;28;20239;-69
2022/03/19 05:11:12;;;;;;;38.30;12.90;;;;;;;;;;5071846;28;20243;-69
2022/03/19 05:11:40;;;;;;;25.70;8.27;;;;;;;;;;5071788;28;20332;-70
2022/03/19 05:14:08;;;;;;;26.92;8.13;;;;;;;;;;5071514;28;20212;-71
2022/03/19 05:16:35;;;;;;;26.60;7.75;;;;;;;;;;5071625;28;20220;-70
2022/03/19 05:19:02;;;;;;;33.10;11.32;;;;;;;;;;5071122;28;20663;-70
2022/03/19 05:21:30;;;;;;;24.25;7.82;;;;;;;;;;5071339;28;20220;-70
2022/03/19 05:23:58;;;;;;;33.90;11.30;;;;;;;;;;5071592;28;20684;-71
2022/03/19 05:26:25;;;;;;;31.42;10.65;;;;;;;;;;5071088;28;20326;-69
2022/03/19 05:28:55;;;;;;;25.88;7.80;;;;;;;;;;5071153;28;20644;-69
2022/03/19 05:31:22;;;;;;;22.35;7.20;;;;;;;;;;5070995;28;20219;-70
2022/03/19 05:36:35;;;;;;;23.30;7.70;;;;;;;;;;5071216;28;20227;-70
2022/03/19 05:39:02;;;;;;;24.38;6.90;;;;;;;;;;5070646;28;20204;-70
2022/03/19 05:41:30;;;;;;;25.90;8.50;;;;;;;;;;5071328;28;20295;-70
2022/03/19 05:43:59;;;;;;;25.67;7.75;;;;;;;;;;5071282;28;20212;-71
2022/03/19 05:46:27;;;;;;;31.05;12.25;;;;;;;;;;5070767;28;20232;-71
2022/03/19 05:48:54;;;;;;;23.33;9.50;;;;;;;;;;5070865;28;20209;-70
2022/03/19 05:51:21;;;;;;;28.67;10.47;;;;;;;;;;5070566;28;20206;-71
2022/03/19 05:53:49;;;;;;;37.70;17.57;;;;;;;;;;5070688;28;20976;-70
2022/03/19 05:56:17;;;;;;;25.17;9.73;;;;;;;;;;5070917;28;20439;-70
2022/03/19 05:58:45;;;;;;;32.80;15.13;;;;;;;;;;5070868;28;20451;-70
2022/03/19 06:01:14;;;;;;;27.60;12.43;;;;;;;;;;5070648;28;20451;-70
2022/03/19 06:03:42;;;;;;;28.10;11.60;;;;;;;;;;5070709;28;20446;-70
2022/03/19 06:06:09;;;;;;;25.77;10.07;;;;;;;;;;5070582;28;20590;-70
2022/03/19 06:08:36;;;;;;;24.30;10.37;;;;;;;;;;5070810;28;20447;-69
2022/03/19 06:11:04;;;;;;;26.50;11.30;;;;;;;;;;5070469;28;20467;-70
2022/03/19 06:13:31;;;;;;;28.17;10.40;;;;;;;;;;5070871;28;20454;-70
2022/03/19 06:15:59;;;;;;;31.20;10.77;;;;;;;;;;5070610;28;20530;-70
2022/03/19 06:18:29;;;;;;;30.87;11.07;;;;;;;;;;5070398;28;20833;-70
2022/03/19 06:20:57;;;;;;;27.37;9.47;;;;;;;;;;5070691;28;20529;-70
2022/03/19 06:23:24;;;;;;;27.67;8.80;;;;;;;;;;5070343;28;20443;-70
2022/03/19 06:25:52;;;;;;;23.23;7.83;;;;;;;;;;5070295;28;20490;-70
2022/03/19 06:28:19;;;;;;;25.03;7.10;;;;;;;;;;5070352;28;20542;-70
2022/03/19 06:30:48;;;;;;;25.10;7.67;;;;;;;;;;5070442;28;20500;-70
2022/03/19 06:33:15;;;;;;;23.73;6.93;;;;;;;;;;5069385;28;21013;-70
2022/03/19 06:38:31;;;;;;;26.03;7.77;;;;;;;;;;5070478;28;20493;-69
2022/03/19 06:40:59;;;;;;;24.37;7.87;;;;;;;;;;5070362;28;20439;-69
2022/03/19 06:43:26;;;;;;;23.47;7.30;;;;;;;;;;5070334;28;20461;-70
2022/03/19 06:45:57;;;;;;;24.53;8.03;;;;;;;;;;5070078;28;20478;-70
2022/03/19 06:48:24;;;;;;;24.60;8.03;;;;;;;;;;5070472;28;20450;-71
2022/03/19 06:50:54;;;;;;;25.27;7.20;;;;;;;;;;5070207;28;20451;-70
2022/03/19 06:53:21;;;;;;;16.90;5.10;;;;;;;;;;5070241;28;20513;-71
2022/03/19 06:55:49;;;;;;;19.50;5.57;;;;;;;;;;5070284;28;20816;-70
2022/03/19 06:58:16;;;;;;;19.30;6.10;;;;;;;;;;5070009;28;20474;-70
2022/03/19 07:00:44;;;;;;;22.60;6.63;;;;;;;;;;5070279;28;20497;-70
2022/03/19 07:03:12;;;;;;;22.30;7.40;;;;;;;;;;5069850;28;20966;-70
2022/03/19 07:05:40;;;;;;;22.80;7.20;;;;;;;;;;5069885;28;20510;-70
2022/03/19 07:08:09;;;;;;;16.17;4.73;;;;;;;;;;5063255;28;20447;-70
2022/03/19 07:10:36;;;;;;;22.03;5.87;;;;;;;;;;5069821;28;20855;-71
2022/03/19 07:13:04;;;;;;;22.17;6.03;;;;;;;;;;5069878;28;20451;-70
2022/03/19 07:15:32;;;;;;;25.23;4.27;;;;;;;;;;5070297;28;20448;-69
2022/03/19 07:18:00;;;;;;;20.00;5.70;;;;;;;;;;5070030;28;20449;-70
2022/03/19 07:20:29;;;;;;;18.37;4.10;;;;;;;;;;5069929;28;20482;-71
2022/03/19 07:22:58;;;;;;;19.30;5.10;;;;;;;;;;5069759;28;20442;-69
2022/03/19 07:25:28;;;;;;;18.33;5.10;;;;;;;;;;5070018;28;20833;-69
2022/03/19 07:27:56;;;;;;;19.05;5.68;;;;;;;;;;5069888;28;20709;-70
2022/03/19 07:30:24;;;;;;;17.48;5.18;;;;;;;;;;5070125;28;20604;-70
2022/03/19 07:32:52;;;;;;;22.85;6.07;;;;;;;;;;5069934;28;20208;-69
2022/03/19 07:35:19;;;;;;;14.90;3.80;;;;;;;;;;5069656;28;20213;-70
2022/03/19 07:37:47;;;;;;;18.52;4.15;;;;;;;;;;5069631;28;20209;-69
2022/03/19 07:40:15;;;;;;;15.10;3.20;;;;;;;;;;5069661;28;20215;-70
2022/03/19 07:42:44;;;;;;;20.77;5.43;;;;;;;;;;5069978;28;21018;-69
2022/03/19 07:45:12;;;;;;;20.08;4.70;;;;;;;;;;5070282;28;20657;-69
2022/03/19 07:47:39;;;;;;;14.63;4.10;;;;;;;;;;5073048;28;20608;-70
2022/03/19 07:50:07;;;;;;;19.88;5.72;;;;;;;;;;5073171;28;20206;-70
2022/03/19 07:52:34;;;;;;;21.52;6.35;;;;;;;;;;5066609;28;20201;-69
2022/03/19 07:55:02;;;;;;;15.67;3.50;;;;;;;;;;5072759;28;20702;-70
2022/03/19 07:57:29;;;;;;;14.60;3.23;;;;;;;;;;5073248;28;20451;-70
2022/03/19 07:59:59;;;;;;;18.75;5.57;;;;;;;;;;5073051;28;20458;-69
2022/03/19 08:02:27;;;;;;;19.70;4.43;;;;;;;;;;5073031;28;20288;-70
2022/03/19 08:04:54;;;;;;;23.25;6.63;;;;;;;;;;5072713;28;20651;-70
2022/03/19 08:07:22;;;;;;;23.57;6.60;;;;;;;;;;5072918;28;20321;-70
2022/03/19 08:09:49;;;;;;;24.50;6.00;;;;;;;;;;5072829;28;20444;-70
2022/03/19 08:12:17;;;;;;;18.47;4.80;;;;;;;;;;5072931;28;20450;-70
2022/03/19 08:14:44;;;;;;;17.77;4.70;;;;;;;;;;5065925;28;20451;-70
2022/03/19 08:17:14;;;;;;;20.40;5.27;;;;;;;;;;5072531;28;20528;-69
2022/03/19 08:19:42;;;;;;;16.77;4.17;;;;;;;;;;5072646;28;20457;-69
2022/03/19 08:22:10;;;;;;;24.83;4.93;;;;;;;;;;5072797;28;20862;-70
2022/03/19 08:24:37;;;;;;;17.60;4.40;;;;;;;;;;5072828;28;20531;-70
2022/03/19 08:27:05;;;;;;;15.93;4.07;;;;;;;;;;5072473;28;20224;-70
2022/03/19 08:29:33;;;;;;;16.45;3.80;;;;;;;;;;5072609;28;20213;-69
2022/03/19 08:32:00;;;;;;;20.73;5.72;;;;;;;;;;5072399;28;20205;-70
2022/03/19 08:34:30;;;;;;;19.75;5.18;;;;;;;;;;5072537;28;20222;-70
2022/03/19 08:36:57;;;;;;;19.33;4.80;;;;;;;;;;5072377;28;20216;-70
2022/03/19 08:42:10;;;;;;;15.27;3.50;;;;;;;;;;5066282;28;20207;-69
2022/03/19 08:44:38;;;;;;;15.90;4.50;;;;;;;;;;5072172;28;20907;-69
2022/03/19 08:47:05;;;;;;;16.55;5.10;;;;;;;;;;5071839;28;20752;-69
2022/03/19 08:49:35;;;;;;;17.55;3.92;;;;;;;;;;5072355;28;20205;-69
2022/03/19 08:52:02;;;;;;;22.40;5.38;;;;;;;;;;5072118;28;20215;-69
2022/03/19 08:54:30;;;;;;;18.40;3.60;;;;;;;;;;5072581;28;20588;-69
2022/03/19 08:56:57;;;;;;;15.50;3.63;;;;;;;;;;5071499;28;20574;-69
2022/03/19 08:59:24;;;;;;;18.85;5.05;;;;;;;;;;5072063;28;20698;-69
2022/03/19 09:01:53;;;;;;;20.30;4.45;;;;;;;;;;5071875;28;20208;-70
2022/03/19 09:04:21;;;;;;;21.98;6.50;;;;;;;;;;5065577;28;20215;-69
2022/03/19 09:06:50;;;;;;;19.85;4.30;;;;;;;;;;5071959;28;20242;-69
2022/03/19 09:09:19;;;;;;;17.77;4.30;;;;;;;;;;5071425;28;20216;-70
2022/03/19 09:11:48;;;;;;;20.75;4.63;;;;;;;;;;5071526;28;20230;-69
2022/03/19 09:14:16;;;;;;;25.80;5.20;;;;;;;;;;5071905;28;20216;-69
2022/03/19 09:16:43;;;;;;;20.48;5.88;;;;;;;;;;5071582;28;20220;-69
2022/03/19 09:19:11;;;;;;;17.33;4.53;;;;;;;;;;5071524;28;20201;-71
2022/03/19 09:21:39;;;;;;;16.70;5.05;;;;;;;;;;5071718;28;20238;-70
2022/03/19 09:24:08;;;;;;;22.48;8.05;;;;;;;;;;5071432;28;20296;-70
2022/03/19 09:26:36;;;;;;;21.92;3.88;;;;;;;;;;5071377;28;20235;-69
2022/03/19 09:29:04;;;;;;;17.13;3.92;;;;;;;;;;5064522;28;20230;-69
2022/03/19 09:31:31;;;;;;;14.57;3.97;;;;;;;;;;5071404;28;20204;-69
2022/03/19 09:33:58;;;;;;;20.42;4.60;;;;;;;;;;5071477;28;20296;-70
2022/03/19 09:36:26;;;;;;;21.23;5.88;;;;;;;;;;5071341;28;20305;-69
2022/03/19 09:38:53;;;;;;;14.55;3.30;;;;;;;;;;5071126;28;20209;-70
2022/03/19 09:41:23;;;;;;;14.85;3.25;;;;;;;;;;5070959;28;20205;-69
2022/03/19 09:43:51;;;;;;;16.73;4.15;;;;;;;;;;5071257;28;20202;-69
2022/03/19 09:46:18;;;;;;;15.88;3.53;;;;;;;;;;5071224;28;20316;-69
2022/03/19 09:48:45;;;;;;;29.92;4.25;;;;;;;;;;5071106;28;20296;-69
2022/03/19 09:51:13;;;;;;;16.98;3.90;;;;;;;;;;5070618;28;20212;-69
2022/03/19 09:53:42;;;;;;;18.30;2.40;;;;;;;;;;5071359;28;20593;-70
2022/03/19 09:56:10;;;;;;;18.73;3.97;;;;;;;;;;5071051;28;20635;-69
2022/03/19 09:58:40;;;;;;;16.05;4.07;;;;;;;;;;5071342;28;20279;-70
2022/03/19 10:01:08;;;;;;;16.40;3.33;;;;;;;;;;5070796;28;20219;-69
2022/03/19 10:03:40;;;;;;;17.02;3.35;;;;;;;;;;5070780;28;20972;-69
2022/03/19 10:08:57;;;;;;;15.93;3.55;;;;;;;;;;5070172;28;20307;-69
2022/03/19 10:11:29;;;;;;;18.15;4.25;;;;;;;;;;5070662;28;20305;-70
2022/03/19 10:14:00;;;;;;;15.98;3.42;;;;;;;;;;5070725;28;20274;-69
2022/03/19 10:16:29;;;;;;;14.55;3.20;;;;;;;;;;5070980;28;20239;-70
2022/03/19 10:18:57;;;;;;;17.83;4.72;;;;;;;;;;5070879;28;20209;-69
2022/03/19 10:21:25;;;;;;;16.15;3.35;;;;;;;;;;5070505;28;20205;-70
2022/03/19 10:23:53;;;;;;;14.95;3.65;;;;;;;;;;5070650;28;20295;-69
2022/03/19 10:26:25;;;;;;;16.73;3.00;;;;;;;;;;5070660;28;20274;-69
2022/03/19 10:28:59;;;;;;;14.82;2.45;;;;;;;;;;5064047;28;20230;-69
2022/03/19 10:31:31;;;;;;;12.45;1.80;;;;;;;;;;5064036;28;20208;-69
2022/03/19 10:33:59;;;;;;;13.68;2.40;;;;;;;;;;5070453;28;20216;-70
2022/03/19 10:36:31;;;;;;;14.80;3.25;;;;;;;;;;5070586;28;20273;-70
2022/03/19 10:38:59;;;;;;;20.52;3.80;;;;;;;;;;5070708;28;20221;-70
2022/03/19 10:41:27;;;;;;;16.13;2.80;;;;;;;;;;5070714;28;20254;-69
2022/03/19 10:43:54;;;;;;;17.85;3.15;;;;;;;;;;5070777;28;20211;-70
2022/03/19 10:46:23;;;;;;;17.05;3.47;;;;;;;;;;5070320;28;20215;-70
2022/03/19 10:48:54;;;;;;;18.63;3.15;;;;;;;;;;5070370;28;20240;-70
2022/03/19 10:51:22;;;;;;;14.10;2.75;;;;;;;;;;5070089;28;20204;-70
2022/03/19 10:53:51;;;;;;;15.48;3.20;;;;;;;;;;5070325;28;20411;-69
2022/03/19 10:56:19;;;;;;;17.70;3.75;;;;;;;;;;5070467;28;20660;-70
2022/03/19 10:58:46;;;;;;;16.65;3.53;;;;;;;;;;5063504;28;20212;-70
2022/03/19 11:01:15;;;;;;;22.27;3.28;;;;;;;;;;5070145;28;20212;-70
2022/03/19 11:03:45;;;;;;;16.42;2.78;;;;;;;;;;5070250;28;20650;-69
2022/03/19 11:06:14;;;;;;;18.77;3.10;;;;;;;;;;5070311;28;20238;-69
2022/03/19 11:08:43;;;;;;;17.45;4.55;;;;;;;;;;5070154;28;20229;-69
2022/03/19 11:11:12;;;;;;;18.45;4.25;;;;;;;;;;5070040;28;20232;-69
2022/03/19 11:13:43;;;;;;;16.45;3.75;;;;;;;;;;5070165;28;20205;-69
2022/03/19 11:16:12;;;;;;;14.75;2.78;;;;;;;;;;5070116;28;20666;-69
2022/03/19 11:18:40;;;;;;;12.00;1.70;;;;;;;;;;5070081;28;20262;-70
2022/03/19 11:21:09;;;;;;;14.88;2.55;;;;;;;;;;5073500;28;20208;-70
2022/03/19 11:23:41;;;;;;;16.10;3.80;;;;;;;;;;5073854;28;20738;-69
2022/03/19 11:26:10;;;;;;;16.48;4.68;;;;;;;;;;5067389;28;20208;-70
2022/03/19 11:28:38;;;;;;;15.98;3.08;;;;;;;;;;5073634;28;20701;-69
2022/03/19 11:31:08;;;;;;;13.63;2.83;;;;;;;;;;5073379;28;20689;-69
2022/03/19 11:33:37;;;;;;;14.90;2.90;;;;;;;;;;5074155;28;20220;-69
2022/03/19 11:36:05;;;;;;;12.65;1.88;;;;;;;;;;5074012;28;20578;-69
2022/03/19 11:38:35;;;;;;;14.50;3.35;;;;;;;;;;5073422;28;20216;-69
2022/03/19 11:41:17;;;;;;;15.38;4.13;;;;;;;;;;5073216;28;20208;-69
2022/03/19 11:43:45;;;;;;;13.60;2.55;;;;;;;;;;5073424;28;20308;-69
2022/03/19 11:46:13;;;;;;;15.63;2.33;;;;;;;;;;5073519;28;20208;-69
2022/03/19 11:48:51;;;;;;;16.67;3.88;;;;;;;;;;5073479;28;20233;-69
2022/03/19 11:51:19;;;;;;;14.65;2.95;;;;;;;;;;5072964;28;20590;-71
2022/03/19 11:53:55;;;;;;;13.88;2.42;;;;;;;;;;5073319;28;20200;-69
2022/03/19 11:56:24;;;;;;;16.95;2.92;;;;;;;;;;5073296;28;20743;-69
2022/03/19 11:58:52;;;;;;;12.70;2.25;;;;;;;;;;5073293;28;20594;-70
2022/03/19 12:01:19;;;;;;;15.40;3.08;;;;;;;;;;5072929;28;20212;-69
2022/03/19 12:04:06;;;;;;;15.55;3.40;;;;;;;;;;5073297;28;20236;-69
2022/03/19 12:06:36;;;;;;;13.63;2.20;;;;;;;;;;5068688;28;20247;-69
2022/03/19 12:09:05;;;;;;;17.15;3.08;;;;;;;;;;5072679;28;20294;-69
2022/03/19 12:11:35;;;;;;;16.30;3.28;;;;;;;;;;5072948;28;20228;-69
2022/03/19 12:14:10;;;;;;;16.30;2.65;;;;;;;;;;5072827;28;20209;-70
2022/03/19 12:16:41;;;;;;;14.40;2.63;;;;;;;;;;5072884;28;20211;-70
2022/03/19 12:19:10;;;;;;;14.98;3.42;;;;;;;;;;5066322;28;20209;-71
2022/03/19 12:21:38;;;;;;;14.70;3.33;;;;;;;;;;5066127;28;20213;-69
2022/03/19 12:24:20;;;;;;;18.92;3.65;;;;;;;;;;5072903;28;20291;-69
2022/03/19 12:26:49;;;;;;;15.20;3.28;;;;;;;;;;5066287;28;20208;-69
2022/03/19 12:29:17;;;;;;;14.10;2.15;;;;;;;;;;5072494;28;20266;-69
2022/03/19 12:31:46;;;;;;;15.50;3.28;;;;;;;;;;5071675;28;20211;-70
2022/03/19 12:34:18;;;;;;;14.80;2.97;;;;;;;;;;5072638;28;20205;-69
2022/03/19 12:36:46;;;;;;;14.32;3.60;;;;;;;;;;5072595;28;20209;-69
2022/03/19 12:39:13;;;;;;;18.90;3.03;;;;;;;;;;5072236;28;20208;-70
2022/03/19 12:41:43;;;;;;;14.90;1.90;;;;;;;;;;5072541;28;20756;-69
2022/03/19 12:44:19;;;;;;;16.60;3.60;;;;;;;;;;5072135;28;20673;-69
2022/03/19 12:46:48;;;;;;;15.10;3.50;;;;;;;;;;5072264;28;20250;-69
2022/03/19 12:49:17;;;;;;;23.52;2.42;;;;;;;;;;5072053;28;20228;-70
2022/03/19 12:51:46;;;;;;;13.55;2.67;;;;;;;;;;5072163;28;20208;-69
2022/03/19 12:54:20;;;;;;;15.05;4.00;;;;;;;;;;5072237;28;20265;-70
2022/03/19 12:56:49;;;;;;;19.05;3.13;;;;;;;;;;5066308;28;20201;-69
2022/03/19 12:59:19;;;;;;;15.77;3.10;;;;;;;;;;5065744;28;20216;-70
2022/03/19 13:01:47;;;;;;;15.05;2.47;;;;;;;;;;5065616;28;20220;-69
2022/03/19 13:04:20;;;;;;;14.45;2.70;;;;;;;;;;5072238;28;20222;-70
2022/03/19 13:06:47;;;;;;;14.20;2.50;;;;;;;;;;5071773;28;20232;-69
2022/03/19 13:09:15;;;;;;;12.77;2.33;;;;;;;;;;5071382;28;20225;-70
2022/03/19 13:11:43;;;;;;;14.43;2.42;;;;;;;;;;5071581;28;20233;-69
2022/03/19 13:14:14;;;;;;;13.63;2.50;;;;;;;;;;5071768;28;20231;-69
2022/03/19 13:16:43;;;;;;;12.50;2.17;;;;;;;;;;5072024;28;20281;-69
2022/03/19 13:19:12;;;;;;;16.40;3.28;;;;;;;;;;5071450;28;20219;-69
2022/03/19 13:21:41;;;;;;;14.55;3.25;;;;;;;;;;5071423;28;20212;-70
2022/03/19 13:24:11;;;;;;;13.85;1.80;;;;;;;;;;5071448;28;20219;-70
2022/03/19 13:26:38;;;;;;;16.63;3.85;;;;;;;;;;5071968;28;20212;-69
2022/03/19 13:29:07;;;;;;;13.77;2.95;;;;;;;;;;5071124;28;20239;-69
2022/03/19 13:31:37;;;;;;;16.63;2.90;;;;;;;;;;5071513;28;20208;-69
2022/03/19 13:34:06;;;;;;;17.33;3.78;;;;;;;;;;5070998;28;20688;-70
2022/03/19 13:36:36;;;;;;;17.15;2.90;;;;;;;;;;5071529;28;20204;-69
2022/03/19 13:39:04;;;;;;;13.18;2.13;;;;;;;;;;5070982;28;20208;-69
2022/03/19 13:41:38;;;;;;;14.15;3.10;;;;;;;;;;5071342;28;20287;-69
2022/03/19 13:44:06;;;;;;;13.52;2.53;;;;;;;;;;5071060;28;20661;-69
2022/03/19 13:46:34;;;;;;;20.08;2.40;;;;;;;;;;5071036;28;20273;-69
2022/03/19 13:49:14;;;;;;;14.73;2.25;;;;;;;;;;5070659;28;20234;-69
2022/03/19 13:51:46;;;;;;;13.57;2.42;;;;;;;;;;5071187;28;20199;-69
2022/03/19 13:54:13;;;;;;;13.57;2.50;;;;;;;;;;5071220;28;20593;-69
2022/03/19 13:57:05;;;;;;;12.38;2.22;;;;;;;;;;5070958;28;20201;-69
2022/03/19 13:59:33;;;;;;;13.23;2.17;;;;;;;;;;5056263;28;20299;-70
2022/03/19 14:02:02;;;;;;;13.00;2.30;;;;;;;;;;5071075;28;20211;-70
2022/03/19 14:04:31;;;;;;;13.85;2.58;;;;;;;;;;5070864;28;20675;-70
2022/03/19 14:07:00;;;;;;;13.95;2.17;;;;;;;;;;5070464;28;20240;-73
2022/03/19 14:09:27;;;;;;;14.77;2.53;;;;;;;;;;5070500;28;20748;-70
2022/03/19 14:11:55;;;;;;;16.45;2.47;;;;;;;;;;5070979;28;20307;-70
2022/03/19 14:14:23;;;;;;;18.00;3.40;;;;;;;;;;5070619;28;20685;-69
2022/03/19 14:16:59;;;;;;;14.25;2.42;;;;;;;;;;5070736;28;20236;-69
2022/03/19 14:19:27;;;;;;;18.23;3.10;;;;;;;;;;5070967;28;20216;-69
2022/03/19 14:21:56;;;;;;;16.80;3.70;;;;;;;;;;5070654;28;20303;-70
2022/03/19 14:24:28;;;;;;;19.13;2.50;;;;;;;;;;5070777;28;20200;-69
2022/03/19 14:26:57;;;;;;;16.02;2.00;;;;;;;;;;5070645;28;20220;-69
2022/03/19 14:29:25;;;;;;;15.35;3.58;;;;;;;;;;5070487;28;20679;-70
2022/03/19 14:31:53;;;;;;;13.52;2.55;;;;;;;;;;5070601;28;20258;-69
2022/03/19 14:34:20;;;;;;;13.40;2.15;;;;;;;;;;5070455;28;20692;-69
2022/03/19 14:36:48;;;;;;;13.25;2.25;;;;;;;;;;5070363;28;20637;-72
2022/03/19 14:39:17;;;;;;;15.23;3.33;;;;;;;;;;5070576;28;20266;-70
2022/03/19 14:41:46;;;;;;;15.40;3.17;;;;;;;;;;5070436;28;20693;-70
2022/03/19 14:44:13;;;;;;;14.60;2.53;;;;;;;;;;5070337;28;20661;-70
2022/03/19 14:46:41;;;;;;;13.27;2.30;;;;;;;;;;5070460;28;20288;-69
2022/03/19 14:49:09;;;;;;;17.27;3.70;;;;;;;;;;5069860;28;20232;-71
2022/03/19 14:51:36;;;;;;;15.05;3.28;;;;;;;;;;5070530;28;20572;-69